Time;durP1;ratioP1;P1;durP2;ratioP2;P2;SDS_P1;SDS_P2;PMS_P1;PMS_P2;Temp;Humidity;BMP_temperature;BMP_pressure;BME280_temperature;BME280_humidity;BME280_pressure;Samples;Min_cycle;Max_cycle;Signal;HPM_P1;HPM_P2
2022/04/16 00:00:15;;;;;;;3.35;1.48;;;14.40;46.10;;;;;;2595849;53;20916;-84
2022/04/16 00:02:41;;;;;;;3.17;1.67;;;14.30;46.00;;;;;;2350179;54;21617;-84
2022/04/16 00:05:08;;;;;;;3.03;1.17;;;14.30;46.00;;;;;;2590822;53;21913;-83
2022/04/16 00:07:35;;;;;;;2.53;1.02;;;14.20;46.00;;;;;;2347343;53;20976;-84
2022/04/16 00:10:01;;;;;;;4.03;1.40;;;14.20;46.00;;;;;;2350150;53;21686;-83
2022/04/16 00:12:30;;;;;;;3.00;1.40;;;14.10;45.90;;;;;;2590928;53;21782;-83
2022/04/16 00:14:56;;;;;;;2.00;0.95;;;14.00;45.90;;;;;;2350281;54;20936;-83
2022/04/16 00:17:23;;;;;;;2.25;0.80;;;14.00;46.00;;;;;;2596712;53;20927;-83
2022/04/16 00:19:49;;;;;;;2.70;1.20;;;13.90;46.00;;;;;;2350290;54;20952;-84
2022/04/16 00:22:16;;;;;;;2.92;1.08;;;13.80;45.90;;;;;;2574131;52;20923;-83
2022/04/16 00:24:42;;;;;;;2.50;1.00;;;13.80;45.90;;;;;;2590538;52;20916;-85
2022/04/16 00:27:12;;;;;;;2.42;1.02;;;13.70;45.90;;;;;;2337558;53;20959;-84
2022/04/16 00:29:38;;;;;;;1.95;0.80;;;13.70;46.00;;;;;;2568911;52;20935;-82
2022/04/16 00:32:05;;;;;;;2.15;1.23;;;13.60;46.10;;;;;;2588265;52;20939;-84
2022/04/16 00:34:34;;;;;;;2.50;1.17;;;13.40;46.00;;;;;;2596738;53;21015;-84
2022/04/16 00:37:01;;;;;;;2.20;0.95;;;13.50;46.20;;;;;;2597261;53;20991;-84
2022/04/16 00:39:27;;;;;;;1.85;0.80;;;13.40;46.10;;;;;;2596590;53;20916;-83
2022/04/16 00:41:54;;;;;;;2.15;1.00;;;13.30;46.10;;;;;;2351790;54;21471;-83
2022/04/16 00:44:20;;;;;;;3.00;1.17;;;13.30;46.10;;;;;;2328705;53;20948;-84
2022/04/16 00:46:47;;;;;;;2.97;1.50;;;13.20;46.20;;;;;;2595465;53;21015;-83
2022/04/16 00:49:13;;;;;;;2.33;1.15;;;13.20;46.40;;;;;;2573741;52;21580;-84
2022/04/16 00:51:41;;;;;;;2.47;1.10;;;13.10;46.50;;;;;;2587982;52;20955;-83
2022/04/16 00:54:07;;;;;;;2.78;1.17;;;13.00;46.50;;;;;;2331559;53;20970;-83
2022/04/16 00:56:34;;;;;;;2.40;1.20;;;13.00;46.50;;;;;;2347923;53;21020;-83
2022/04/16 00:59:01;;;;;;;2.58;1.10;;;12.90;46.50;;;;;;2597689;53;21023;-83
2022/04/16 01:01:28;;;;;;;2.60;1.02;;;12.90;46.50;;;;;;2352499;54;21374;-84
2022/04/16 01:03:55;;;;;;;2.33;1.10;;;12.80;46.50;;;;;;2597517;53;20983;-84
2022/04/16 01:06:21;;;;;;;2.25;1.00;;;12.80;46.70;;;;;;2349587;54;21038;-83
2022/04/16 01:08:48;;;;;;;2.80;1.20;;;12.80;46.70;;;;;;2594293;53;21028;-83
2022/04/16 01:11:14;;;;;;;3.05;1.30;;;12.70;46.70;;;;;;2573206;52;22146;-83
2022/04/16 01:13:45;;;;;;;2.25;1.08;;;12.70;46.80;;;;;;2344086;53;20948;-83
2022/04/16 01:16:12;;;;;;;2.28;1.10;;;12.60;46.70;;;;;;2585333;52;21796;-83
2022/04/16 01:18:47;;;;;;;3.42;1.25;;;12.60;46.80;;;;;;2593784;52;21862;-83
2022/04/16 01:21:14;;;;;;;2.00;0.90;;;12.50;47.00;;;;;;2595360;53;20920;-84
2022/04/16 01:23:41;;;;;;;2.22;1.10;;;12.50;46.90;;;;;;2596824;53;20917;-84
2022/04/16 01:26:07;;;;;;;2.87;1.10;;;12.40;46.90;;;;;;2350690;54;20984;-83
2022/04/16 01:28:34;;;;;;;2.20;1.12;;;12.40;47.00;;;;;;2596277;53;20975;-83
2022/04/16 01:31:00;;;;;;;1.87;1.12;;;12.30;46.90;;;;;;2596629;53;20981;-83
2022/04/16 01:33:27;;;;;;;2.30;1.10;;;12.30;47.00;;;;;;2352931;53;20970;-84
2022/04/16 01:35:56;;;;;;;2.70;1.02;;;12.20;47.10;;;;;;2595837;52;21028;-84
2022/04/16 01:38:25;;;;;;;1.85;1.00;;;12.20;47.20;;;;;;2596411;53;20980;-83
2022/04/16 01:41:00;;;;;;;1.80;0.85;;;12.10;47.10;;;;;;2596515;53;20913;-83
2022/04/16 01:43:29;;;;;;;2.55;1.20;;;12.10;47.50;;;;;;2596851;53;20912;-83
2022/04/16 01:45:56;;;;;;;2.97;1.45;;;12.00;47.20;;;;;;2349825;54;20944;-84
2022/04/16 01:48:27;;;;;;;3.22;1.42;;;12.00;47.30;;;;;;2596625;53;21786;-83
2022/04/16 01:50:54;;;;;;;3.00;1.30;;;11.90;47.40;;;;;;2589670;52;21399;-83
2022/04/16 01:53:21;;;;;;;2.83;1.12;;;11.90;47.40;;;;;;2575132;52;20900;-83
2022/04/16 01:55:48;;;;;;;2.25;1.00;;;11.90;47.40;;;;;;2593404;53;20972;-84
2022/04/16 01:58:14;;;;;;;2.17;0.95;;;11.80;47.50;;;;;;2594328;53;21003;-84
2022/04/16 02:00:41;;;;;;;2.17;1.10;;;11.80;47.60;;;;;;2573683;52;20975;-83
2022/04/16 02:03:08;;;;;;;2.20;0.90;;;11.80;47.70;;;;;;2574815;52;20955;-83
2022/04/16 02:05:35;;;;;;;2.75;1.25;;;11.70;47.70;;;;;;2591029;52;20953;-83
2022/04/16 02:08:01;;;;;;;2.87;1.30;;;11.70;47.70;;;;;;2351100;54;20978;-83
2022/04/16 02:10:27;;;;;;;2.80;1.20;;;11.70;47.70;;;;;;2596629;53;20924;-83
2022/04/16 02:12:54;;;;;;;2.87;1.33;;;11.60;47.70;;;;;;2584388;53;20924;-82
2022/04/16 02:15:20;;;;;;;2.70;1.40;;;11.60;47.70;;;;;;2580804;52;21012;-83
2022/04/16 02:17:46;;;;;;;2.53;1.05;;;11.60;47.70;;;;;;2596621;53;20916;-84
2022/04/16 02:20:13;;;;;;;3.90;1.27;;;11.50;47.70;;;;;;2350874;54;20999;-84
2022/04/16 02:22:43;;;;;;;2.33;0.93;;;11.50;47.80;;;;;;2350661;54;20932;-83
2022/04/16 02:25:10;;;;;;;3.00;1.05;;;11.50;47.90;;;;;;2351076;54;21585;-83
2022/04/16 02:27:36;;;;;;;2.15;1.02;;;11.50;47.80;;;;;;2350608;54;20927;-83
2022/04/16 02:30:04;;;;;;;2.90;1.35;;;11.40;47.80;;;;;;2596608;53;20924;-83
2022/04/16 02:32:31;;;;;;;2.15;1.05;;;11.40;47.90;;;;;;2328301;53;20980;-84
2022/04/16 02:34:57;;;;;;;2.70;1.23;;;11.40;47.80;;;;;;2596479;53;20959;-83
2022/04/16 02:37:23;;;;;;;2.70;1.50;;;11.30;48.00;;;;;;2350579;54;20915;-83
2022/04/16 02:39:51;;;;;;;2.78;1.40;;;11.30;48.00;;;;;;2350382;54;20924;-83
2022/04/16 02:42:18;;;;;;;2.47;1.27;;;11.30;48.10;;;;;;2568235;52;20923;-83
2022/04/16 02:47:30;;;;;;;2.30;1.23;;;11.20;48.00;;;;;;2345480;53;20968;-85
2022/04/16 02:49:56;;;;;;;2.12;1.10;;;11.20;48.00;;;;;;2596031;53;20888;-84
2022/04/16 02:52:22;;;;;;;2.35;1.20;;;11.10;48.00;;;;;;2331257;53;20860;-84
2022/04/16 02:54:48;;;;;;;2.60;0.95;;;11.10;48.10;;;;;;2345866;53;21535;-83
2022/04/16 02:57:15;;;;;;;2.10;0.90;;;11.10;48.10;;;;;;2578917;52;20932;-83
2022/04/16 02:59:41;;;;;;;2.20;1.10;;;11.00;48.10;;;;;;2595415;53;20920;-83
2022/04/16 03:02:08;;;;;;;2.97;1.20;;;11.00;48.20;;;;;;2596139;53;21528;-83
2022/04/16 03:04:34;;;;;;;3.85;1.50;;;10.90;48.10;;;;;;2595839;53;20991;-83
2022/04/16 03:07:01;;;;;;;2.60;1.40;;;10.90;48.20;;;;;;2595392;53;20932;-83
2022/04/16 03:09:28;;;;;;;2.70;1.40;;;10.90;48.30;;;;;;2351510;54;20947;-84
2022/04/16 03:11:54;;;;;;;2.70;1.50;;;10.80;48.20;;;;;;2347717;53;21070;-83
2022/04/16 03:20:38;;;;;;;2.75;0.90;;;10.60;48.10;;;;;;2596729;53;21007;-83
2022/04/16 03:23:05;;;;;;;2.62;1.17;;;10.70;48.20;;;;;;2597147;53;20945;-83
2022/04/16 03:25:32;;;;;;;2.37;1.02;;;10.70;48.20;;;;;;2350814;54;20999;-83
2022/04/16 03:27:58;;;;;;;2.37;1.10;;;10.60;48.30;;;;;;2597995;53;20924;-83
2022/04/16 03:30:25;;;;;;;2.62;1.05;;;10.60;48.90;;;;;;2596637;53;20896;-82
2022/04/16 03:32:51;;;;;;;2.50;1.08;;;10.50;48.30;;;;;;2330074;53;20928;-82
2022/04/16 03:35:19;;;;;;;1.73;0.90;;;10.50;48.30;;;;;;2350366;54;21434;-83
2022/04/16 03:37:45;;;;;;;2.17;1.10;;;10.50;48.40;;;;;;2349332;54;20963;-83
2022/04/16 03:40:12;;;;;;;2.12;1.10;;;10.40;48.30;;;;;;2573523;52;20963;-84
2022/04/16 03:42:58;;;;;;;1.85;1.00;;;10.40;48.40;;;;;;2581995;52;21038;-83
2022/04/16 03:45:30;;;;;;;2.80;1.00;;;10.40;48.90;;;;;;2350535;53;20956;-83
2022/04/16 03:47:57;;;;;;;3.12;1.10;;;10.30;48.60;;;;;;2594592;53;20963;-83
2022/04/16 03:50:25;;;;;;;2.45;0.80;;;10.30;48.50;;;;;;2348646;54;20944;-84
2022/04/16 03:52:52;;;;;;;2.00;1.00;;;10.30;48.70;;;;;;2595801;53;21028;-83
2022/04/16 04:00:52;;;;;;;1.45;0.60;;;10.20;48.70;;;;;;2594574;53;21015;-83
2022/04/16 04:03:19;;;;;;;3.62;0.90;;;10.20;48.80;;;;;;2348820;54;20943;-83
2022/04/16 04:05:45;;;;;;;3.00;1.33;;;10.20;48.80;;;;;;2348590;54;21035;-83
2022/04/16 04:08:11;;;;;;;2.08;1.05;;;10.10;48.70;;;;;;2350796;54;20971;-83
2022/04/16 04:10:38;;;;;;;2.80;1.27;;;10.10;48.80;;;;;;2596438;53;21453;-83
2022/04/16 04:13:04;;;;;;;2.35;1.17;;;10.00;48.70;;;;;;2596447;53;21462;-83
2022/04/16 04:15:30;;;;;;;3.00;1.05;;;10.00;48.80;;;;;;2596197;53;21374;-83
2022/04/16 04:17:58;;;;;;;2.30;1.10;;;10.00;48.80;;;;;;2596547;53;21012;-84
2022/04/16 04:20:25;;;;;;;2.70;1.17;;;9.90;49.70;;;;;;2595928;53;20944;-83
2022/04/16 04:22:52;;;;;;;2.60;1.23;;;9.90;49.90;;;;;;2596710;53;21444;-84
2022/04/16 04:25:18;;;;;;;2.60;1.48;;;9.90;50.00;;;;;;2596479;53;20908;-83
2022/04/16 04:27:44;;;;;;;2.67;1.27;;;9.90;50.00;;;;;;2596502;53;21462;-84
2022/04/16 04:30:11;;;;;;;2.40;1.40;;;9.90;50.10;;;;;;2350506;54;21003;-84
2022/04/16 04:32:37;;;;;;;2.97;1.60;;;9.80;50.70;;;;;;2596306;53;20920;-83
2022/04/16 04:35:06;;;;;;;3.10;1.50;;;9.80;50.10;;;;;;2596552;53;20932;-83
2022/04/16 04:37:33;;;;;;;2.75;1.33;;;9.80;50.20;;;;;;2594986;53;20889;-83
2022/04/16 04:39:59;;;;;;;2.75;1.30;;;9.80;50.30;;;;;;2593883;53;20941;-83
2022/04/16 04:42:27;;;;;;;2.75;1.45;;;9.80;50.50;;;;;;2348888;54;21548;-82
2022/04/16 04:44:54;;;;;;;2.60;1.25;;;9.80;50.60;;;;;;2596307;53;21294;-83
2022/04/16 04:47:22;;;;;;;3.00;1.42;;;9.80;50.50;;;;;;2350524;54;21454;-83
2022/04/16 04:49:49;;;;;;;2.62;1.20;;;9.70;50.40;;;;;;2593685;53;20995;-83
2022/04/16 04:52:24;;;;;;;2.97;1.58;;;9.70;50.50;;;;;;2594402;53;21004;-84
2022/04/16 04:54:50;;;;;;;2.60;1.25;;;9.70;50.70;;;;;;2594045;53;21559;-83
2022/04/16 04:57:16;;;;;;;2.30;1.25;;;9.70;50.60;;;;;;2349003;54;20963;-83
2022/04/16 04:59:43;;;;;;;2.83;1.20;;;9.70;50.60;;;;;;2593982;53;20943;-83
2022/04/16 05:02:09;;;;;;;3.20;1.60;;;9.70;50.70;;;;;;2594155;53;20932;-83
2022/04/16 05:04:36;;;;;;;5.97;2.50;;;9.70;50.70;;;;;;2350545;54;20932;-83
2022/04/16 05:07:05;;;;;;;5.65;2.08;;;9.70;50.90;;;;;;2595671;53;21082;-83
2022/04/16 05:09:31;;;;;;;4.07;2.20;;;9.70;50.90;;;;;;2596438;53;20931;-83
2022/04/16 05:11:58;;;;;;;4.28;1.90;;;9.70;50.90;;;;;;2350095;54;21401;-82
2022/04/16 05:14:24;;;;;;;3.00;1.65;;;9.70;51.00;;;;;;2349687;54;21237;-84
2022/04/16 05:16:50;;;;;;;2.80;1.30;;;9.80;51.10;;;;;;2593125;53;21027;-83
2022/04/16 05:19:16;;;;;;;2.85;1.55;;;9.80;51.10;;;;;;2593679;53;20980;-83
2022/04/16 05:21:45;;;;;;;2.67;1.17;;;9.80;51.10;;;;;;2331605;53;20941;-84
2022/04/16 05:24:12;;;;;;;2.95;1.30;;;9.80;51.20;;;;;;2596273;53;20939;-83
2022/04/16 05:26:39;;;;;;;3.30;1.40;;;9.80;51.20;;;;;;2595645;53;20991;-82
2022/04/16 05:29:06;;;;;;;2.80;1.40;;;9.80;51.20;;;;;;2595245;53;20923;-83
2022/04/16 05:31:32;;;;;;;3.33;1.45;;;9.80;51.30;;;;;;2594735;53;21561;-84
2022/04/16 05:36:43;;;;;;;2.40;1.15;;;9.90;51.60;;;;;;2594774;53;20931;-84
2022/04/16 05:39:09;;;;;;;2.50;1.40;;;9.90;51.60;;;;;;2583231;52;21035;-83
2022/04/16 05:41:38;;;;;;;2.87;1.48;;;9.90;51.50;;;;;;2578044;52;20913;-82
2022/04/16 05:44:05;;;;;;;3.10;1.50;;;9.90;51.50;;;;;;2338228;53;21042;-83
2022/04/16 05:46:31;;;;;;;2.28;1.20;;;10.00;50.70;;;;;;2340757;53;20975;-83
2022/04/16 05:48:58;;;;;;;3.08;1.50;;;10.00;50.70;;;;;;2594579;53;20904;-82
2022/04/16 05:51:24;;;;;;;3.20;1.52;;;10.00;50.70;;;;;;2347806;54;20995;-85
2022/04/16 05:53:51;;;;;;;3.65;1.80;;;10.00;50.80;;;;;;2349333;54;21011;-83
2022/04/16 05:56:18;;;;;;;4.03;1.80;;;10.10;50.90;;;;;;2347038;54;20920;-83
2022/04/16 05:58:46;;;;;;;2.90;1.62;;;10.10;50.90;;;;;;2593231;53;21305;-83
2022/04/16 06:01:13;;;;;;;3.00;1.50;;;10.10;51.00;;;;;;2565522;52;20951;-83
2022/04/16 06:03:39;;;;;;;4.07;1.52;;;10.20;51.20;;;;;;2594291;53;20964;-82
2022/04/16 06:06:06;;;;;;;3.03;1.48;;;10.20;51.30;;;;;;2595062;53;21352;-83
2022/04/16 06:08:33;;;;;;;3.37;1.70;;;10.20;51.50;;;;;;2593914;53;20936;-82
2022/04/16 06:10:59;;;;;;;3.15;1.55;;;10.30;51.50;;;;;;2348790;54;20901;-84
2022/04/16 06:13:25;;;;;;;4.43;2.05;;;10.30;51.60;;;;;;2348412;54;20924;-83
2022/04/16 06:15:51;;;;;;;3.10;1.50;;;10.30;51.60;;;;;;2594463;53;20924;-83
2022/04/16 06:18:18;;;;;;;3.50;1.70;;;10.40;51.60;;;;;;2335750;53;20956;-83
2022/04/16 06:20:44;;;;;;;2.83;1.58;;;10.50;51.80;;;;;;2581734;52;21939;-83
2022/04/16 06:23:10;;;;;;;3.95;1.90;;;10.50;51.80;;;;;;2328516;53;20935;-83
2022/04/16 06:25:37;;;;;;;3.17;1.70;;;10.60;51.90;;;;;;2343153;54;20988;-83
2022/04/16 06:28:04;;;;;;;3.15;1.87;;;10.60;51.90;;;;;;2578685;52;20921;-82
2022/04/16 06:30:30;;;;;;;4.70;2.10;;;10.70;52.00;;;;;;2593875;52;20967;-83
2022/04/16 06:32:57;;;;;;;3.70;2.20;;;10.80;52.20;;;;;;2326896;55;20999;-83
2022/04/16 06:35:23;;;;;;;4.12;2.00;;;10.80;52.20;;;;;;2594326;53;20967;-82
2022/04/16 06:37:50;;;;;;;3.28;1.75;;;10.90;52.20;;;;;;2576334;52;20944;-83
2022/04/16 06:40:17;;;;;;;4.05;1.90;;;11.00;52.30;;;;;;2584299;53;21063;-82
2022/04/16 06:42:43;;;;;;;3.25;1.80;;;11.00;52.30;;;;;;2594096;53;20901;-82
2022/04/16 06:45:10;;;;;;;3.28;1.73;;;11.10;52.40;;;;;;2593874;53;20908;-82
2022/04/16 06:47:37;;;;;;;3.25;1.60;;;11.20;52.40;;;;;;2594033;53;21454;-83
2022/04/16 06:50:04;;;;;;;4.12;1.77;;;11.30;52.70;;;;;;2327836;53;21524;-83
2022/04/16 06:52:30;;;;;;;5.50;1.77;;;11.40;53.40;;;;;;2578682;52;20970;-83
2022/04/16 06:54:57;;;;;;;3.00;1.50;;;11.70;54.30;;;;;;2334436;53;20959;-84
2022/04/16 06:57:26;;;;;;;3.22;1.55;;;12.00;55.00;;;;;;2591615;53;21007;-83
2022/04/16 06:59:55;;;;;;;3.17;1.83;;;12.30;55.60;;;;;;2592205;53;20940;-82
2022/04/16 07:02:21;;;;;;;2.58;1.48;;;12.70;56.20;;;;;;2591746;53;21380;-82
2022/04/16 07:04:49;;;;;;;3.67;1.67;;;13.20;56.80;;;;;;2591950;53;20979;-85
2022/04/16 07:07:16;;;;;;;3.47;1.60;;;13.70;57.20;;;;;;2591927;53;21007;-82
2022/04/16 07:09:42;;;;;;;3.28;1.77;;;14.30;57.60;;;;;;2345218;54;21920;-82
2022/04/16 07:12:12;;;;;;;5.82;1.80;;;14.80;57.40;;;;;;2591536;53;20972;-83
2022/04/16 07:14:38;;;;;;;3.47;1.70;;;15.40;57.20;;;;;;2331366;53;21034;-82
2022/04/16 07:17:05;;;;;;;2.75;1.40;;;16.00;57.10;;;;;;2340698;53;21240;-81
2022/04/16 07:19:32;;;;;;;3.78;1.30;;;16.50;56.90;;;;;;2589312;53;20956;-82
2022/04/16 07:21:58;;;;;;;2.92;1.60;;;17.00;56.60;;;;;;2344869;54;20971;-83
2022/04/16 07:24:25;;;;;;;2.47;1.15;;;17.50;56.10;;;;;;2591423;53;21007;-83
2022/04/16 07:26:53;;;;;;;2.50;1.33;;;18.00;55.50;;;;;;2573857;52;21022;-80
2022/04/16 07:29:25;;;;;;;2.30;1.30;;;18.40;55.40;;;;;;2580968;52;20969;-81
2022/04/16 07:31:51;;;;;;;2.40;1.25;;;18.90;55.00;;;;;;2591330;53;20988;-81
2022/04/16 07:34:18;;;;;;;2.45;1.10;;;19.30;54.10;;;;;;2568426;52;20992;-81
2022/04/16 07:36:45;;;;;;;2.78;1.50;;;19.60;52.50;;;;;;2589854;52;20912;-80
2022/04/16 07:39:12;;;;;;;2.53;1.40;;;19.80;51.20;;;;;;2346207;54;21426;-82
2022/04/16 07:41:38;;;;;;;2.90;1.35;;;19.80;50.00;;;;;;2346613;54;20971;-83
2022/04/16 07:44:05;;;;;;;2.67;1.20;;;19.80;49.00;;;;;;2347249;54;21558;-83
2022/04/16 07:46:35;;;;;;;2.70;1.02;;;19.80;48.20;;;;;;2346730;54;21026;-83
2022/04/16 07:49:01;;;;;;;2.62;1.35;;;19.60;47.40;;;;;;2591534;53;21939;-80
2022/04/16 07:51:28;;;;;;;2.75;1.35;;;19.40;47.00;;;;;;2345993;54;20979;-82
2022/04/16 07:53:55;;;;;;;3.55;1.40;;;19.20;46.70;;;;;;2582585;53;21393;-82
2022/04/16 07:56:22;;;;;;;3.35;1.50;;;19.00;46.40;;;;;;2574493;52;20956;-81
2022/04/16 07:58:49;;;;;;;3.00;1.50;;;18.90;46.30;;;;;;2592552;53;20980;-82
2022/04/16 08:01:15;;;;;;;2.55;1.30;;;18.70;46.00;;;;;;2592414;53;21888;-80
2022/04/16 08:03:42;;;;;;;3.87;1.40;;;18.50;45.90;;;;;;2584798;53;20959;-82
2022/04/16 08:06:08;;;;;;;2.53;1.27;;;18.30;45.90;;;;;;2578809;52;21286;-82
2022/04/16 08:08:35;;;;;;;2.37;1.15;;;18.20;46.10;;;;;;2574068;52;20971;-81
2022/04/16 08:11:01;;;;;;;2.95;1.40;;;17.90;46.20;;;;;;2594868;53;20963;-80
2022/04/16 08:13:27;;;;;;;2.78;1.52;;;18.10;47.00;;;;;;2594749;53;21474;-81
2022/04/16 08:15:54;;;;;;;4.22;1.37;;;18.10;47.20;;;;;;2565939;52;21584;-80
2022/04/16 08:18:20;;;;;;;2.40;1.30;;;18.20;47.20;;;;;;2581330;52;20925;-83
2022/04/16 08:20:46;;;;;;;2.00;1.00;;;18.30;46.90;;;;;;2594206;52;20915;-83
2022/04/16 08:23:14;;;;;;;2.00;0.90;;;18.40;47.10;;;;;;2594776;53;20960;-81
2022/04/16 08:28:15;;;;;;;2.75;1.10;;;18.50;47.40;;;;;;2587175;52;21135;-82
2022/04/16 08:30:42;;;;;;;2.45;1.10;;;18.80;47.30;;;;;;2565770;52;20915;-82
2022/04/16 08:33:13;;;;;;;2.42;0.90;;;19.00;46.50;;;;;;2347554;54;20944;-81
2022/04/16 08:35:42;;;;;;;1.87;0.82;;;19.00;45.80;;;;;;2347859;54;20950;-82
2022/04/16 08:38:11;;;;;;;1.45;0.62;;;19.10;46.00;;;;;;2329344;53;20892;-80
2022/04/16 08:40:37;;;;;;;1.45;0.70;;;19.20;46.10;;;;;;2594803;53;20984;-81
2022/04/16 08:43:07;;;;;;;1.98;0.70;;;19.30;46.10;;;;;;2347887;54;21026;-81
2022/04/16 08:45:35;;;;;;;1.77;0.70;;;19.50;45.70;;;;;;2590374;53;20924;-83
2022/04/16 08:48:01;;;;;;;1.45;0.50;;;19.60;45.20;;;;;;2565166;52;20936;-84
2022/04/16 08:50:28;;;;;;;1.83;0.60;;;19.70;45.30;;;;;;2343134;53;20971;-82
2022/04/16 08:52:54;;;;;;;1.27;0.60;;;19.90;45.40;;;;;;2331289;53;20947;-84
2022/04/16 08:55:20;;;;;;;2.12;0.65;;;20.00;45.20;;;;;;2593383;53;21331;-82
2022/04/16 08:57:47;;;;;;;1.48;0.60;;;20.20;45.40;;;;;;2588660;53;21446;-83
2022/04/16 09:00:14;;;;;;;0.95;0.50;;;20.40;45.30;;;;;;2327488;53;20996;-82
2022/04/16 09:02:50;;;;;;;1.52;0.70;;;20.60;45.30;;;;;;2592382;53;21813;-83
2022/04/16 09:05:17;;;;;;;0.98;0.45;;;20.90;44.40;;;;;;2346487;54;20944;-83
2022/04/16 09:07:56;;;;;;;1.55;0.57;;;21.00;44.30;;;;;;2592524;53;20955;-82
2022/04/16 09:10:25;;;;;;;1.60;0.60;;;21.30;43.80;;;;;;2327141;54;20956;-82
2022/04/16 09:12:52;;;;;;;1.77;0.82;;;21.60;44.10;;;;;;2347360;54;21028;-84
2022/04/16 09:15:19;;;;;;;2.25;0.90;;;21.70;44.00;;;;;;2592888;53;20977;-81
2022/04/16 09:18:29;;;;;;;2.12;0.70;;;21.80;43.30;;;;;;2593266;53;21568;-81
2022/04/16 09:20:56;;;;;;;1.50;0.70;;;21.90;42.40;;;;;;2591716;53;20931;-80
2022/04/16 09:23:22;;;;;;;1.77;0.80;;;22.00;42.20;;;;;;2592359;53;21347;-82
2022/04/16 09:25:49;;;;;;;1.92;0.60;;;22.10;42.30;;;;;;2559975;52;20908;-80
2022/04/16 09:28:19;;;;;;;1.12;0.47;;;22.20;42.10;;;;;;2590183;52;20909;-81
2022/04/16 09:31:07;;;;;;;1.35;0.50;;;22.20;41.40;;;;;;2565231;52;20924;-81
2022/04/16 09:33:37;;;;;;;1.48;0.60;;;22.20;40.70;;;;;;2593674;52;20935;-81
2022/04/16 09:36:04;;;;;;;1.27;0.50;;;22.40;40.80;;;;;;2595253;53;21232;-80
2022/04/16 09:38:37;;;;;;;1.30;0.55;;;22.40;40.30;;;;;;2346862;54;21047;-79
2022/04/16 09:41:05;;;;;;;3.92;0.73;;;22.40;40.00;;;;;;2594418;53;20900;-81
2022/04/16 09:43:35;;;;;;;1.33;0.60;;;22.30;40.30;;;;;;2348083;54;21633;-82
2022/04/16 09:46:09;;;;;;;1.95;0.65;;;22.30;39.80;;;;;;2594124;53;20991;-82
2022/04/16 09:48:35;;;;;;;1.58;0.70;;;22.30;39.50;;;;;;2593873;53;21524;-83
2022/04/16 09:51:02;;;;;;;7.05;0.70;;;22.30;39.10;;;;;;2592854;53;20951;-82
2022/04/16 09:53:29;;;;;;;1.62;0.70;;;22.20;38.60;;;;;;2346248;54;20892;-82
2022/04/16 09:55:55;;;;;;;2.60;0.85;;;22.10;38.90;;;;;;2593891;53;20917;-83
2022/04/16 09:58:25;;;;;;;1.50;0.70;;;22.20;39.40;;;;;;2592653;53;20939;-81
2022/04/16 10:00:51;;;;;;;1.50;0.70;;;22.20;39.60;;;;;;2346612;54;20955;-81
2022/04/16 10:03:33;;;;;;;1.62;0.52;;;22.20;39.60;;;;;;2594028;53;21043;-81
2022/04/16 10:06:00;;;;;;;1.48;0.70;;;22.30;39.20;;;;;;2346138;54;20900;-81
2022/04/16 10:08:27;;;;;;;1.45;0.68;;;22.20;38.80;;;;;;2593261;53;20983;-81
2022/04/16 10:10:57;;;;;;;1.52;0.70;;;22.20;38.90;;;;;;2593968;53;20996;-81
2022/04/16 10:13:24;;;;;;;1.70;0.70;;;22.20;38.90;;;;;;2589065;53;21227;-81
2022/04/16 10:16:13;;;;;;;1.85;0.90;;;22.30;38.90;;;;;;2569391;52;21553;-81
2022/04/16 10:18:40;;;;;;;1.62;0.75;;;22.30;37.90;;;;;;2591219;53;22046;-82
2022/04/16 10:21:14;;;;;;;1.40;0.70;;;22.20;38.10;;;;;;2589941;53;20952;-81
2022/04/16 10:23:43;;;;;;;1.60;0.70;;;22.10;37.50;;;;;;2590109;53;20975;-81
2022/04/16 10:26:13;;;;;;;2.17;0.85;;;22.00;37.60;;;;;;2590099;53;20948;-80
2022/04/16 10:28:58;;;;;;;1.80;0.90;;;22.00;37.50;;;;;;2588616;53;21110;-81
2022/04/16 10:31:28;;;;;;;2.20;0.82;;;21.90;37.10;;;;;;2341139;53;21212;-80
2022/04/16 10:35:17;;;;;;;4.20;1.62;;;21.80;37.50;;;;;;2344605;53;20947;-82
2022/04/16 10:37:45;;;;;;;1.70;0.70;;;21.60;37.30;;;;;;2592105;53;20952;-80
2022/04/16 10:40:18;;;;;;;3.28;1.20;;;21.50;37.60;;;;;;2345939;54;21067;-81
2022/04/16 10:42:48;;;;;;;2.17;1.00;;;21.40;38.10;;;;;;2346654;54;20924;-81
2022/04/16 10:45:19;;;;;;;2.10;1.00;;;21.30;37.40;;;;;;2593794;53;20932;-82
2022/04/16 10:47:48;;;;;;;1.95;0.90;;;21.30;37.70;;;;;;2345787;54;20951;-79
2022/04/16 10:50:15;;;;;;;2.28;1.00;;;21.20;37.70;;;;;;2579361;52;21044;-81
2022/04/16 10:52:55;;;;;;;2.17;0.90;;;21.20;37.60;;;;;;2575842;52;21301;-80
2022/04/16 10:55:25;;;;;;;2.50;1.10;;;21.20;37.40;;;;;;2345930;54;20947;-80
2022/04/16 10:58:04;;;;;;;1.70;0.80;;;21.30;37.90;;;;;;2563031;52;20958;-79
2022/04/16 11:00:45;;;;;;;1.77;0.77;;;21.30;37.70;;;;;;2587347;53;21458;-78
2022/04/16 11:03:42;;;;;;;1.92;0.90;;;21.40;38.10;;;;;;2342921;54;20943;-80
2022/04/16 11:06:08;;;;;;;3.30;1.25;;;21.50;38.50;;;;;;2343874;54;20923;-79
2022/04/16 11:08:36;;;;;;;2.05;1.00;;;21.60;38.40;;;;;;2336729;53;20975;-80
2022/04/16 11:11:04;;;;;;;2.10;0.90;;;21.70;38.60;;;;;;2579232;52;20983;-79
2022/04/16 11:13:33;;;;;;;2.20;0.90;;;21.80;38.30;;;;;;2590863;53;20896;-81
2022/04/16 11:15:59;;;;;;;2.37;1.12;;;22.00;38.40;;;;;;2591549;53;20908;-79
2022/04/16 11:18:45;;;;;;;2.25;1.00;;;22.10;38.20;;;;;;2329736;53;21070;-79
2022/04/16 11:21:13;;;;;;;1.60;0.70;;;22.20;37.70;;;;;;2341272;53;20984;-79
2022/04/16 11:23:46;;;;;;;1.98;0.80;;;22.40;38.30;;;;;;2344667;54;21812;-79
2022/04/16 11:34:28;;;;;;;2.10;0.90;;;22.70;37.20;;;;;;2326197;55;21432;-80
2022/04/16 11:37:03;;;;;;;2.20;0.90;;;22.80;37.10;;;;;;2592442;53;20916;-81
2022/04/16 11:39:30;;;;;;;2.25;1.00;;;22.80;37.10;;;;;;2346481;54;21048;-80
2022/04/16 11:41:58;;;;;;;2.15;1.00;;;22.80;36.80;;;;;;2593172;53;21333;-79
2022/04/16 11:44:41;;;;;;;1.95;0.73;;;22.80;36.60;;;;;;2346026;54;21365;-79
2022/04/16 11:47:12;;;;;;;1.95;0.95;;;22.80;36.50;;;;;;2590382;53;20986;-78
2022/04/16 11:49:44;;;;;;;2.30;1.12;;;22.80;36.80;;;;;;2590371;53;20924;-78
2022/04/16 11:52:10;;;;;;;2.58;1.00;;;22.90;36.70;;;;;;2590304;53;21361;-79
2022/04/16 11:54:37;;;;;;;1.85;0.85;;;22.90;36.50;;;;;;2343435;54;20968;-78
2022/04/16 11:57:03;;;;;;;1.87;0.90;;;22.90;36.30;;;;;;2343247;54;21003;-78
2022/04/16 11:59:30;;;;;;;1.62;0.73;;;22.90;36.20;;;;;;2325147;53;20938;-79
2022/04/16 12:02:05;;;;;;;2.17;0.93;;;22.90;36.00;;;;;;2590173;52;20904;-79
2022/04/16 12:04:41;;;;;;;2.37;0.93;;;22.90;35.60;;;;;;2590899;53;21039;-78
2022/04/16 12:07:16;;;;;;;2.15;1.02;;;22.90;35.40;;;;;;2343411;54;21498;-78
2022/04/16 12:09:49;;;;;;;1.92;0.85;;;22.90;35.50;;;;;;2589951;53;21793;-79
2022/04/16 12:12:24;;;;;;;2.00;0.80;;;22.90;35.50;;;;;;2589867;53;20963;-79
2022/04/16 12:14:54;;;;;;;1.67;0.73;;;22.80;35.40;;;;;;2591267;53;20992;-78
2022/04/16 12:17:29;;;;;;;1.75;0.70;;;22.80;35.40;;;;;;2582670;53;21023;-82
2022/04/16 12:20:20;;;;;;;2.10;0.90;;;22.70;35.10;;;;;;2578775;52;20976;-81
2022/04/16 12:23:02;;;;;;;1.55;0.70;;;22.70;35.00;;;;;;2347975;54;20996;-81
2022/04/16 12:25:29;;;;;;;2.10;0.85;;;22.60;35.50;;;;;;2593154;53;21712;-81
2022/04/16 12:27:57;;;;;;;2.08;0.90;;;22.60;35.60;;;;;;2595770;53;20916;-81
2022/04/16 12:30:28;;;;;;;2.15;0.90;;;22.60;35.20;;;;;;2595831;53;21840;-81
2022/04/16 12:33:27;;;;;;;1.42;0.60;;;22.50;35.10;;;;;;2595047;53;21411;-81
2022/04/16 12:35:57;;;;;;;2.28;0.80;;;22.60;34.90;;;;;;2326183;53;21006;-81
2022/04/16 12:38:25;;;;;;;1.90;0.77;;;22.70;35.70;;;;;;2592762;53;21003;-81
2022/04/16 12:40:55;;;;;;;2.65;0.90;;;22.70;36.00;;;;;;2592866;53;20984;-81
2022/04/16 12:43:22;;;;;;;1.73;0.70;;;22.80;36.10;;;;;;2593789;53;20914;-81
2022/04/16 12:45:49;;;;;;;1.77;0.80;;;22.90;36.20;;;;;;2592701;53;21275;-81
2022/04/16 12:48:16;;;;;;;2.08;0.98;;;23.10;36.20;;;;;;2592667;53;21802;-81
2022/04/16 12:50:42;;;;;;;1.75;0.73;;;23.20;36.10;;;;;;2346482;54;21024;-81
2022/04/16 12:53:08;;;;;;;1.87;0.80;;;23.40;36.20;;;;;;2343227;53;21336;-82
2022/04/16 12:55:35;;;;;;;1.90;0.70;;;23.50;36.10;;;;;;2592321;52;20936;-81
2022/04/16 12:58:01;;;;;;;4.20;1.15;;;23.60;35.90;;;;;;2593028;53;20936;-81
2022/04/16 13:00:28;;;;;;;1.90;1.00;;;23.80;36.00;;;;;;2346751;54;20904;-83
2022/04/16 13:02:59;;;;;;;2.30;1.00;;;23.70;35.70;;;;;;2348022;54;21679;-86
2022/04/16 13:05:26;;;;;;;2.10;0.82;;;24.00;35.40;;;;;;2594472;53;20955;-82
2022/04/16 13:07:52;;;;;;;1.73;0.80;;;24.10;34.90;;;;;;2339236;53;20974;-84
2022/04/16 13:10:19;;;;;;;2.15;0.90;;;24.10;34.40;;;;;;2559434;52;20963;-82
2022/04/16 13:12:45;;;;;;;1.85;0.80;;;24.10;34.60;;;;;;2342563;53;20940;-82
2022/04/16 13:15:12;;;;;;;2.75;1.00;;;24.10;34.60;;;;;;2591220;53;20920;-84
2022/04/16 13:17:39;;;;;;;1.58;0.50;;;24.20;34.30;;;;;;2346591;54;20972;-83
2022/04/16 13:20:06;;;;;;;2.30;1.00;;;24.10;33.80;;;;;;2573190;52;20988;-85
2022/04/16 13:22:32;;;;;;;2.03;0.80;;;24.00;33.50;;;;;;2593761;52;20907;-83